Time;durP1;ratioP1;P1;durP2;ratioP2;P2;SDS_P1;SDS_P2;PMS_P1;PMS_P2;Temp;Humidity;BMP_temperature;BMP_pressure;BME280_temperature;BME280_humidity;BME280_pressure;Samples;Min_cycle;Max_cycle;Signal;HPM_P1;HPM_P2
2022/02/07 00:00:05;;;;;;;;;;;2.40;99.90;;;;;;5035168;28;20012;-79
2022/02/07 00:03:00;;;;;;;;;;;2.40;99.90;;;;;;5022800;28;19984;-79
2022/02/07 00:05:22;;;;;;;;;;;2.40;99.90;;;;;;5032229;28;20006;-80
2022/02/07 00:07:48;;;;;;;;;;;2.30;99.90;;;;;;5031111;28;20414;-82
2022/02/07 00:10:14;;;;;;;;;;;2.40;99.90;;;;;;5064090;22;19980;-78
2022/02/07 00:12:45;;;;;;;;;;;2.30;99.90;;;;;;5039153;28;20361;-79
2022/02/07 00:15:14;;;;;;;;;;;2.40;99.90;;;;;;5038169;28;20252;-79
2022/02/07 00:17:40;;;;;;;;;;;2.40;99.90;;;;;;5028422;28;19945;-79
2022/02/07 00:20:12;;;;;;;;;;;2.40;99.90;;;;;;5017334;28;20371;-79
2022/02/07 00:22:37;;;;;;;;;;;2.40;99.90;;;;;;4991314;28;19918;-79
2022/02/07 00:25:03;;;;;;;;;;;2.30;99.90;;;;;;5008261;28;20011;-79
2022/02/07 00:27:29;;;;;;;;;;;2.30;99.90;;;;;;5009091;28;20375;-78
2022/02/07 00:29:54;;;;;;;;;;;2.30;99.90;;;;;;5012403;28;20375;-79
2022/02/07 00:32:20;;;;;;;;;;;2.30;99.90;;;;;;4987107;28;19979;-78
2022/02/07 00:34:46;;;;;;;;;;;2.30;99.90;;;;;;5016737;28;20209;-78
2022/02/07 00:37:11;;;;;;;;;;;2.20;99.90;;;;;;5008145;28;19914;-79
2022/02/07 00:39:49;;;;;;;;;;;2.20;99.90;;;;;;4998004;28;19956;-79
2022/02/07 00:42:27;;;;;;;;;;;2.20;99.90;;;;;;5013213;28;19920;-79
2022/02/07 00:44:54;;;;;;;;;;;2.20;99.90;;;;;;5010885;28;20399;-79
2022/02/07 00:47:20;;;;;;;;;;;2.20;99.90;;;;;;4995321;28;19917;-79
2022/02/07 00:49:45;;;;;;;;;;;2.20;99.90;;;;;;5007833;28;20275;-79
2022/02/07 00:52:11;;;;;;;;;;;2.20;99.90;;;;;;5007430;28;19921;-80
2022/02/07 00:54:37;;;;;;;;;;;2.20;99.90;;;;;;5010825;28;19917;-80
2022/02/07 00:57:03;;;;;;;;;;;2.20;99.90;;;;;;4990681;28;20000;-80
2022/02/07 00:59:29;;;;;;;;;;;2.20;99.90;;;;;;4993107;28;20427;-79
2022/02/07 01:01:55;;;;;;;;;;;2.20;99.90;;;;;;4992424;28;19940;-79
2022/02/07 01:04:21;;;;;;;;;;;2.10;99.90;;;;;;5020875;28;20367;-79
2022/02/07 01:06:56;;;;;;;;;;;2.20;99.90;;;;;;5024535;28;19940;-79
2022/02/07 01:09:39;;;;;;;;;;;2.20;99.90;;;;;;5010939;28;19917;-80
2022/02/07 01:12:18;;;;;;;;;;;2.20;99.90;;;;;;5025656;28;19933;-79
2022/02/07 01:15:26;;;;;;;;;;;2.20;99.90;;;;;;5009950;28;20498;-79
2022/02/07 01:53:40;;;;;;;;;;;1.60;99.90;;;;;;5030111;28;19940;-80
2022/02/07 01:56:09;;;;;;;;;;;1.60;99.90;;;;;;5010110;28;19961;-80
2022/02/07 01:58:40;;;;;;;;;;;1.50;99.90;;;;;;5008826;28;19940;-81
2022/02/07 02:01:06;;;;;;;;;;;1.50;99.90;;;;;;5011685;28;19918;-80
2022/02/07 02:03:32;;;;;;;;;;;1.50;99.90;;;;;;5005586;28;19969;-80
2022/02/07 02:06:01;;;;;;;;;;;1.50;99.90;;;;;;5009621;28;19917;-80
2022/02/07 02:08:36;;;;;;;;;;;1.40;99.90;;;;;;5012119;28;19918;-80
2022/02/07 02:11:02;;;;;;;;;;;1.40;99.90;;;;;;5013233;28;20008;-80
2022/02/07 02:19:17;;;;;;;;;;;1.40;99.90;;;;;;4996741;28;20406;-80
2022/02/07 02:38:21;;;;;;;;;;;1.40;99.90;;;;;;4993134;28;19964;-80
2022/02/07 02:45:40;;;;;;;;;;;1.40;99.90;;;;;;5022906;28;20543;-81
2022/02/07 02:48:22;;;;;;;;;;;1.40;99.90;;;;;;5013257;28;19914;-79
2022/02/07 02:50:52;;;;;;;;;;;1.30;99.90;;;;;;4993354;28;19961;-80
2022/02/07 02:53:18;;;;;;;;;;;1.30;99.90;;;;;;5018072;28;20263;-79
2022/02/07 02:55:44;;;;;;;;;;;1.30;99.90;;;;;;4996545;28;19921;-80
2022/02/07 02:58:12;;;;;;;;;;;1.30;99.90;;;;;;5012656;28;20376;-79
2022/02/07 03:00:39;;;;;;;;;;;1.40;99.90;;;;;;5012899;28;19913;-80
2022/02/07 03:03:10;;;;;;;;;;;1.40;99.90;;;;;;5011314;28;19989;-79
2022/02/07 03:05:36;;;;;;;;;;;1.40;99.90;;;;;;5006932;28;19917;-79
2022/02/07 03:08:02;;;;;;;;;;;1.40;99.90;;;;;;5011777;28;19918;-79
2022/02/07 03:10:40;;;;;;;;;;;1.40;99.90;;;;;;5009062;28;19966;-80
2022/02/07 03:13:16;;;;;;;;;;;1.40;99.90;;;;;;5012389;28;20330;-80
2022/02/07 03:18:27;;;;;;;;;;;1.30;99.90;;;;;;5014955;28;20375;-80
2022/02/07 03:20:53;;;;;;;;;;;1.30;99.90;;;;;;4996118;28;19920;-79
2022/02/07 03:23:19;;;;;;;;;;;1.30;99.90;;;;;;5029194;28;20384;-80
2022/02/07 03:25:45;;;;;;;;;;;1.30;99.90;;;;;;5016037;28;19964;-80
2022/02/07 03:28:10;;;;;;;;;;;1.30;99.90;;;;;;4984498;28;19929;-80
2022/02/07 03:30:40;;;;;;;;;;;1.30;99.90;;;;;;5025227;28;19960;-80
2022/02/07 03:33:05;;;;;;;;;;;1.20;99.90;;;;;;5025497;28;20428;-79
2022/02/07 03:35:32;;;;;;;;;;;1.20;99.90;;;;;;4992256;28;19965;-80
2022/02/07 03:37:58;;;;;;;;;;;1.20;99.90;;;;;;5008309;28;19918;-79
2022/02/07 03:40:26;;;;;;;;;;;1.20;99.90;;;;;;5027979;28;19922;-80
2022/02/07 03:42:52;;;;;;;;;;;1.10;99.90;;;;;;4996226;28;20012;-80
2022/02/07 03:45:18;;;;;;;;;;;1.10;99.90;;;;;;5015770;28;20585;-81
2022/02/07 03:47:49;;;;;;;;;;;1.10;99.90;;;;;;5025988;28;19944;-80
2022/02/07 03:50:18;;;;;;;;;;;1.00;99.90;;;;;;5022187;28;20291;-80
2022/02/07 03:52:50;;;;;;;;;;;1.00;99.90;;;;;;5017998;28;19977;-79
2022/02/07 03:55:17;;;;;;;;;;;1.00;99.90;;;;;;5010737;28;19925;-79
2022/02/07 03:57:43;;;;;;;;;;;1.00;99.90;;;;;;5025636;28;19917;-79
2022/02/07 04:00:10;;;;;;;;;;;0.90;99.90;;;;;;5020185;28;19921;-80
2022/02/07 04:02:44;;;;;;;;;;;0.90;99.90;;;;;;5008421;28;20302;-79
2022/02/07 04:07:50;;;;;;;;;;;0.90;99.90;;;;;;5013116;28;20012;-79
2022/02/07 04:10:16;;;;;;;;;;;0.90;99.90;;;;;;5044211;28;19952;-79
2022/02/07 04:12:48;;;;;;;;;;;0.90;99.90;;;;;;5028761;28;19918;-79
2022/02/07 04:15:17;;;;;;;;;;;0.90;99.90;;;;;;5013792;28;19921;-79
2022/02/07 04:17:52;;;;;;;;;;;0.90;99.90;;;;;;5010021;28;19925;-81
2022/02/07 04:20:18;;;;;;;;;;;0.90;99.90;;;;;;4991838;28;19917;-81
2022/02/07 04:22:48;;;;;;;;;;;0.90;99.90;;;;;;5031584;28;20386;-80
2022/02/07 04:25:38;;;;;;;;;;;0.90;99.90;;;;;;4998798;28;20004;-78
2022/02/07 04:28:17;;;;;;;;;;;0.90;99.90;;;;;;5011697;28;19918;-79
2022/02/07 04:30:43;;;;;;;;;;;0.90;99.90;;;;;;5000070;28;19924;-79
2022/02/07 04:33:10;;;;;;;;;;;0.90;99.90;;;;;;5000258;28;19925;-79
2022/02/07 04:35:35;;;;;;;;;;;0.90;99.90;;;;;;4995129;28;20303;-79
2022/02/07 04:38:01;;;;;;;;;;;0.90;99.90;;;;;;4993011;28;19914;-80
2022/02/07 04:40:27;;;;;;;;;;;0.90;99.90;;;;;;5012452;28;19918;-79
2022/02/07 04:42:53;;;;;;;;;;;0.90;99.90;;;;;;5008686;28;19941;-79
2022/02/07 04:58:40;;;;;;;;;;;1.00;99.90;;;;;;4989589;28;19968;-80
2022/02/07 05:03:56;;;;;;;;;;;1.00;99.90;;;;;;5025340;28;19921;-80
2022/02/07 05:14:46;;;;;;;;;;;1.00;99.90;;;;;;4993822;28;19918;-80
2022/02/07 05:17:13;;;;;;;;;;;1.00;99.90;;;;;;4993949;28;19976;-80
2022/02/07 05:19:57;;;;;;;;;;;0.90;99.90;;;;;;5010742;28;20016;-79
2022/02/07 05:22:39;;;;;;;;;;;1.00;99.90;;;;;;5007622;28;19917;-79
2022/02/07 05:25:38;;;;;;;;;;;1.00;99.90;;;;;;4996253;28;19940;-80
2022/02/07 05:28:17;;;;;;;;;;;0.90;99.90;;;;;;5007977;28;19961;-80
2022/02/07 05:30:46;;;;;;;;;;;0.90;99.90;;;;;;5011934;28;19917;-80
2022/02/07 05:33:23;;;;;;;;;;;0.90;99.90;;;;;;4983176;28;19936;-80
2022/02/07 05:36:09;;;;;;;;;;;1.00;99.90;;;;;;4991302;28;20296;-81
2022/02/07 05:39:02;;;;;;;;;;;1.00;99.90;;;;;;5005933;28;19914;-80
2022/02/07 05:41:46;;;;;;;;;;;1.00;99.90;;;;;;5009331;28;19924;-80
2022/02/07 05:44:18;;;;;;;;;;;1.00;99.90;;;;;;5013406;28;20040;-79
2022/02/07 05:47:02;;;;;;;;;;;1.00;99.90;;;;;;4996196;28;19924;-79
2022/02/07 05:49:46;;;;;;;;;;;0.90;99.90;;;;;;5020370;28;20059;-79
2022/02/07 05:52:34;;;;;;;;;;;0.90;99.90;;;;;;4990656;28;19948;-79
2022/02/07 05:55:18;;;;;;;;;;;1.00;99.90;;;;;;5001783;28;19963;-79
2022/02/07 05:58:07;;;;;;;;;;;0.90;99.90;;;;;;4996926;28;19913;-80
2022/02/07 06:00:48;;;;;;;;;;;1.00;99.90;;;;;;5004956;28;19913;-81
2022/02/07 06:03:17;;;;;;;;;;;1.00;99.90;;;;;;5011645;28;19940;-80
2022/02/07 06:05:49;;;;;;;;;;;1.00;99.90;;;;;;5025674;28;19918;-79
2022/02/07 06:08:21;;;;;;;;;;;1.00;99.90;;;;;;5029030;28;19945;-79
2022/02/07 06:10:47;;;;;;;;;;;1.00;99.90;;;;;;5002847;28;19928;-79
2022/02/07 06:13:14;;;;;;;;;;;1.00;99.90;;;;;;5001040;28;19924;-79
2022/02/07 06:15:40;;;;;;;;;;;1.00;99.90;;;;;;5029839;28;19917;-79
2022/02/07 06:18:06;;;;;;;;;;;1.00;99.90;;;;;;4990698;28;20000;-79
2022/02/07 06:20:34;;;;;;;;;;;1.00;99.90;;;;;;5026018;28;19972;-79
2022/02/07 06:22:59;;;;;;;;;;;0.90;99.90;;;;;;5025824;28;20382;-79
2022/02/07 06:25:25;;;;;;;;;;;0.90;99.90;;;;;;5012562;28;19917;-79
2022/02/07 06:27:52;;;;;;;;;;;1.00;99.90;;;;;;4994641;28;20024;-79
2022/02/07 06:30:24;;;;;;;;;;;0.90;99.90;;;;;;5019875;28;20017;-79
2022/02/07 06:32:50;;;;;;;;;;;0.90;99.90;;;;;;5028858;28;19918;-79
2022/02/07 06:35:17;;;;;;;;;;;0.90;99.90;;;;;;5033518;28;19925;-79
2022/02/07 06:37:43;;;;;;;;;;;0.90;99.90;;;;;;5031615;28;19925;-79
2022/02/07 06:40:10;;;;;;;;;;;0.90;99.90;;;;;;5023146;28;20436;-79
2022/02/07 06:42:36;;;;;;;;;;;0.90;99.90;;;;;;5012207;28;19936;-79
2022/02/07 06:45:04;;;;;;;;;;;0.90;99.90;;;;;;5002464;28;19917;-79
2022/02/07 06:47:30;;;;;;;;;;;0.90;99.90;;;;;;5025145;28;19917;-79
2022/02/07 06:49:56;;;;;;;;;;;0.90;99.90;;;;;;4977893;28;20400;-79
2022/02/07 06:52:22;;;;;;;;;;;0.90;99.90;;;;;;5011630;28;19933;-79
2022/02/07 06:54:49;;;;;;;;;;;0.90;99.90;;;;;;5030043;28;19918;-78
2022/02/07 06:57:16;;;;;;;;;;;1.00;99.90;;;;;;5018204;28;19941;-78
2022/02/07 06:59:43;;;;;;;;;;;0.90;99.90;;;;;;5011020;28;19964;-78
2022/02/07 07:02:12;;;;;;;;;;;1.00;99.90;;;;;;5013329;28;19913;-78
2022/02/07 07:04:38;;;;;;;;;;;1.00;99.90;;;;;;5016090;28;19949;-79
2022/02/07 07:07:05;;;;;;;;;;;1.00;99.90;;;;;;5027379;28;21109;-79
2022/02/07 07:09:32;;;;;;;;;;;1.00;99.90;;;;;;5028214;28;20415;-78
2022/02/07 07:12:03;;;;;;;;;;;0.90;99.90;;;;;;4995987;28;19979;-78
2022/02/07 07:14:51;;;;;;;;;;;1.00;99.90;;;;;;5011866;28;20003;-79
2022/02/07 07:17:18;;;;;;;;;;;1.00;99.90;;;;;;5033264;28;19988;-78
2022/02/07 07:19:47;;;;;;;;;;;1.00;99.90;;;;;;5016623;28;20016;-79
2022/02/07 07:22:14;;;;;;;;;;;1.00;99.90;;;;;;5027555;28;20004;-78
2022/02/07 07:24:42;;;;;;;;;;;1.00;99.90;;;;;;5021910;28;19917;-78
2022/02/07 07:27:09;;;;;;;;;;;1.00;99.90;;;;;;5032212;28;19917;-79
2022/02/07 07:29:39;;;;;;;;;;;1.10;99.90;;;;;;5032504;28;20379;-78
2022/02/07 07:32:07;;;;;;;;;;;1.10;99.90;;;;;;5008831;28;19963;-79
2022/02/07 07:34:36;;;;;;;;;;;1.10;99.90;;;;;;4992802;28;19928;-79
2022/02/07 07:37:18;;;;;;;;;;;1.10;99.90;;;;;;4997900;28;19917;-79
2022/02/07 07:39:44;;;;;;;;;;;1.10;99.90;;;;;;5026686;28;20359;-79
2022/02/07 07:42:10;;;;;;;;;;;1.10;99.90;;;;;;5019532;28;20290;-79
2022/02/07 07:45:02;;;;;;;;;;;1.10;99.90;;;;;;5006378;28;19918;-79
2022/02/07 07:47:47;;;;;;;;;;;1.10;99.90;;;;;;5011967;28;19924;-78
2022/02/07 07:51:05;;;;;;;;;;;1.10;99.90;;;;;;5003572;28;19914;-79
2022/02/07 08:02:24;;;;;;;;;;;1.40;99.90;;;;;;5012164;28;19917;-79
2022/02/07 08:04:50;;;;;;;;;;;1.50;99.90;;;;;;5012482;28;20264;-79
2022/02/07 08:07:24;;;;;;;;;;;1.50;99.90;;;;;;5024468;28;19963;-79
2022/02/07 08:10:24;;;;;;;;;;;1.50;99.90;;;;;;5026959;28;19921;-79
2022/02/07 08:13:00;;;;;;;;;;;1.50;99.90;;;;;;4992060;28;19928;-79
2022/02/07 08:15:26;;;;;;;;;;;1.60;99.90;;;;;;5008472;28;20008;-79
2022/02/07 08:17:52;;;;;;;;;;;1.60;99.90;;;;;;5012194;28;19956;-79
2022/02/07 08:20:17;;;;;;;;;;;1.60;99.90;;;;;;5010557;28;19921;-79
2022/02/07 08:22:43;;;;;;;;;;;1.60;99.90;;;;;;5009247;28;20285;-79
2022/02/07 08:25:09;;;;;;;;;;;1.50;99.90;;;;;;4993859;28;19918;-80
2022/02/07 08:27:36;;;;;;;;;;;1.50;99.90;;;;;;5010277;28;19913;-79
2022/02/07 08:30:02;;;;;;;;;;;1.60;99.90;;;;;;5012009;28;20521;-79
2022/02/07 08:32:27;;;;;;;;;;;1.60;99.90;;;;;;5015718;28;20287;-79
2022/02/07 08:34:53;;;;;;;;;;;1.60;99.90;;;;;;5010905;28;19921;-79
2022/02/07 08:37:19;;;;;;;;;;;1.70;99.90;;;;;;5008580;28;20379;-78
2022/02/07 08:39:45;;;;;;;;;;;1.70;99.90;;;;;;5010757;28;20297;-80
2022/02/07 08:42:10;;;;;;;;;;;1.70;99.90;;;;;;5010775;28;19913;-79
2022/02/07 08:44:36;;;;;;;;;;;1.70;99.90;;;;;;5006287;28;19953;-79
2022/02/07 08:47:03;;;;;;;;;;;1.80;99.90;;;;;;5011384;28;19968;-78
2022/02/07 08:49:28;;;;;;;;;;;1.80;99.90;;;;;;4997566;28;19921;-78
2022/02/07 08:51:54;;;;;;;;;;;1.80;99.90;;;;;;4991797;28;19933;-79
2022/02/07 08:54:23;;;;;;;;;;;1.80;99.90;;;;;;5010992;28;19924;-78
2022/02/07 08:56:58;;;;;;;;;;;1.90;99.90;;;;;;4995549;28;19930;-78
2022/02/07 08:59:32;;;;;;;;;;;1.90;99.90;;;;;;5006744;28;19933;-78
2022/02/07 09:02:19;;;;;;;;;;;1.90;99.90;;;;;;4990594;28;19918;-78
2022/02/07 09:07:33;;;;;;;;;;;2.10;99.90;;;;;;5003456;28;19918;-79
2022/02/07 09:09:59;;;;;;;;;;;2.10;99.90;;;;;;5004519;28;19949;-79
2022/02/07 09:12:24;;;;;;;;;;;2.20;99.90;;;;;;5011105;28;19976;-79
2022/02/07 09:15:07;;;;;;;;;;;2.20;99.90;;;;;;5009688;28;19960;-79
2022/02/07 09:17:32;;;;;;;;;;;2.20;99.90;;;;;;5026893;28;19918;-80
2022/02/07 09:19:58;;;;;;;;;;;2.30;99.90;;;;;;5015761;28;20008;-79
2022/02/07 09:22:23;;;;;;;;;;;2.40;99.90;;;;;;5025713;28;19929;-80
2022/02/07 09:24:49;;;;;;;;;;;2.40;99.90;;;;;;5007966;28;20079;-80
2022/02/07 09:27:15;;;;;;;;;;;2.40;99.90;;;;;;4997499;28;19917;-79
2022/02/07 09:29:40;;;;;;;;;;;2.50;99.90;;;;;;5030858;28;20469;-79
2022/02/07 09:32:06;;;;;;;;;;;2.50;99.90;;;;;;5009426;28;19921;-79
2022/02/07 09:34:32;;;;;;;;;;;2.50;99.90;;;;;;5008592;28;20310;-80
2022/02/07 09:36:58;;;;;;;;;;;2.60;99.90;;;;;;5025460;28;19918;-79
2022/02/07 09:39:30;;;;;;;;;;;2.60;99.90;;;;;;5006511;28;19921;-79
2022/02/07 09:41:57;;;;;;;;;;;2.70;99.90;;;;;;5009381;28;19917;-78
2022/02/07 09:44:24;;;;;;;;;;;2.80;99.90;;;;;;5001980;28;19921;-78
2022/02/07 09:46:51;;;;;;;;;;;2.90;99.90;;;;;;5008447;28;19961;-78
2022/02/07 09:49:22;;;;;;;;;;;2.90;99.90;;;;;;5026219;28;19917;-78
2022/02/07 09:51:49;;;;;;;;;;;2.90;99.90;;;;;;5011829;28;19921;-79
2022/02/07 09:54:16;;;;;;;;;;;3.00;99.90;;;;;;5010108;28;19925;-78
2022/02/07 09:56:41;;;;;;;;;;;3.00;99.90;;;;;;5011597;28;20400;-79
2022/02/07 09:59:08;;;;;;;;;;;3.00;99.90;;;;;;5012133;28;19928;-79
2022/02/07 10:01:37;;;;;;;;;;;3.00;99.90;;;;;;5011575;28;19938;-79
2022/02/07 10:04:07;;;;;;;;;;;3.10;99.90;;;;;;4998517;28;19970;-78
2022/02/07 10:12:02;;;;;;;;;;;3.30;99.90;;;;;;5013654;28;19917;-78
2022/02/07 10:14:47;;;;;;;;;;;3.40;99.90;;;;;;5015187;28;19944;-78
2022/02/07 10:17:32;;;;;;;;;;;3.40;99.90;;;;;;5015088;28;20358;-78
2022/02/07 10:37:43;;;;;;;;;;;3.90;99.90;;;;;;5014173;28;20299;-79
2022/02/07 10:40:08;;;;;;;;;;;3.90;99.90;;;;;;5019753;28;19913;-78
2022/02/07 10:43:06;;;;;;;;;;;4.00;99.90;;;;;;5005047;28;19921;-79
2022/02/07 10:45:32;;;;;;;;;;;4.00;99.90;;;;;;5008491;28;19960;-78
2022/02/07 10:47:59;;;;;;;;;;;4.00;99.90;;;;;;5013117;28;19917;-78
2022/02/07 10:50:25;;;;;;;;;;;4.00;99.90;;;;;;5013043;28;19940;-78
2022/02/07 10:52:52;;;;;;;;;;;3.90;99.90;;;;;;5032719;28;19917;-78
2022/02/07 10:55:18;;;;;;;;;;;3.80;99.90;;;;;;5016016;28;19917;-78
2022/02/07 10:57:44;;;;;;;;;;;3.80;99.90;;;;;;5028981;28;19917;-78
2022/02/07 11:00:10;;;;;;;;;;;3.70;99.90;;;;;;5017375;28;19950;-78
2022/02/07 11:02:47;;;;;;;;;;;3.80;99.90;;;;;;5012895;28;19918;-78
2022/02/07 11:05:16;;;;;;;;;;;3.80;99.90;;;;;;5019263;28;20081;-78
2022/02/07 11:07:42;;;;;;;;;;;3.90;99.90;;;;;;5014235;28;19944;-78
2022/02/07 11:10:33;;;;;;;;;;;4.00;99.90;;;;;;5029114;28;19919;-79
2022/02/07 11:15:38;;;;;;;;;;;4.10;99.90;;;;;;5019892;28;19967;-79
2022/02/07 11:23:25;;;;;;;;;;;4.30;99.90;;;;;;5031081;28;19920;-79
2022/02/07 11:28:24;;;;;;;;;;;4.30;99.90;;;;;;5009984;28;19914;-79
2022/02/07 11:30:56;;;;;;;;;;;4.30;99.90;;;;;;5005978;28;19925;-78
2022/02/07 11:33:28;;;;;;;;;;;4.30;99.90;;;;;;5024866;28;19918;-79
2022/02/07 11:35:53;;;;;;;;;;;4.40;99.90;;;;;;5027872;28;20375;-79
2022/02/07 11:38:19;;;;;;;;;;;4.40;99.90;;;;;;5026748;28;19960;-79
2022/02/07 11:41:03;;;;;;;;;;;4.50;99.90;;;;;;5011084;28;19917;-80
2022/02/07 11:43:31;;;;;;;;;;;4.50;99.90;;;;;;5013779;28;19921;-79
2022/02/07 11:46:05;;;;;;;;;;;4.60;99.90;;;;;;5012429;28;20000;-79
2022/02/07 11:48:47;;;;;;;;;;;4.60;99.90;;;;;;5012359;28;20302;-79
2022/02/07 11:51:14;;;;;;;;;;;4.60;99.90;;;;;;5008822;28;20406;-79
2022/02/07 11:53:45;;;;;;;;;;;4.50;99.90;;;;;;5008720;28;19918;-80
2022/02/07 11:56:16;;;;;;;;;;;4.40;99.90;;;;;;5022435;28;21321;-79
2022/02/07 11:58:47;;;;;;;;;;;4.40;99.90;;;;;;5023843;28;20383;-80
2022/02/07 12:01:13;;;;;;;;;;;4.40;99.90;;;;;;5019777;28;20379;-79
2022/02/07 12:03:40;;;;;;;;;;;4.40;99.90;;;;;;5010395;28;19910;-79
2022/02/07 12:06:07;;;;;;;;;;;4.40;99.90;;;;;;5010530;28;19925;-79
2022/02/07 12:08:37;;;;;;;;;;;4.40;99.90;;;;;;5011996;28;19960;-80
2022/02/07 12:11:02;;;;;;;;;;;4.50;99.90;;;;;;5015217;28;19943;-79
2022/02/07 12:13:35;;;;;;;;;;;4.60;99.90;;;;;;5061950;23;19929;-77
2022/02/07 12:16:05;;;;;;;;;;;4.70;99.90;;;;;;5049711;28;19913;-79
2022/02/07 12:18:31;;;;;;;;;;;4.80;99.90;;;;;;5045706;28;19925;-79
2022/02/07 12:21:13;;;;;;;;;;;4.80;99.90;;;;;;5065218;28;19916;-79
2022/02/07 12:23:38;;;;;;;;;;;4.70;99.90;;;;;;5058656;28;19962;-79
2022/02/07 12:26:15;;;;;;;;;;;4.80;99.90;;;;;;5062055;28;19917;-79
2022/02/07 12:28:45;;;;;;;;;;;4.80;99.90;;;;;;5051056;28;20374;-77
2022/02/07 12:31:19;;;;;;;;;;;4.80;99.90;;;;;;5048772;28;19913;-79
2022/02/07 12:33:50;;;;;;;;;;;4.80;99.90;;;;;;5055994;28;20019;-79
2022/02/07 12:36:16;;;;;;;;;;;4.80;99.90;;;;;;5046874;28;19913;-79
2022/02/07 12:38:43;;;;;;;;;;;4.90;99.90;;;;;;5055392;28;19924;-80
2022/02/07 12:41:11;;;;;;;;;;;4.90;99.90;;;;;;5053496;28;20393;-79
2022/02/07 12:43:38;;;;;;;;;;;5.00;99.90;;;;;;5053644;28;19984;-79
2022/02/07 12:46:06;;;;;;;;;;;5.00;99.90;;;;;;5058991;28;20024;-79
2022/02/07 12:48:33;;;;;;;;;;;5.10;99.90;;;;;;5042116;28;19940;-79
2022/02/07 12:50:59;;;;;;;;;;;5.10;99.90;;;;;;5037436;28;19924;-79
2022/02/07 12:53:27;;;;;;;;;;;5.20;99.90;;;;;;5056858;28;19916;-80
2022/02/07 12:55:56;;;;;;;;;;;5.20;99.90;;;;;;5070956;28;21418;-79
2022/02/07 12:58:22;;;;;;;;;;;5.20;99.90;;;;;;5059004;28;19916;-79
2022/02/07 13:00:48;;;;;;;;;;;5.20;99.90;;;;;;5048591;28;20011;-79
2022/02/07 13:03:14;;;;;;;;;;;5.10;99.90;;;;;;5050005;28;19956;-79
2022/02/07 13:05:39;;;;;;;;;;;5.10;99.90;;;;;;5050766;28;19924;-79
2022/02/07 13:08:05;;;;;;;;;;;5.10;99.90;;;;;;5050120;28;20400;-79
2022/02/07 13:10:35;;;;;;;;;;;5.10;99.90;;;;;;5045357;28;19913;-80
2022/02/07 13:15:30;;;;;;;;;;;5.10;99.90;;;;;;5049702;28;19917;-78
2022/02/07 13:18:00;;;;;;;;;;;5.00;99.90;;;;;;5046527;28;19921;-80
2022/02/07 13:20:26;;;;;;;;;;;4.90;99.90;;;;;;5052207;28;19917;-80
2022/02/07 13:23:27;;;;;;;;;;;4.80;99.90;;;;;;5052908;28;19913;-81
2022/02/07 13:25:54;;;;;;;;;;;4.70;99.90;;;;;;5002549;28;20434;-79
2022/02/07 13:28:21;;;;;;;;;;;4.60;99.90;;;;;;5037574;28;19935;-81
2022/02/07 13:30:48;;;;;;;;;;;4.50;99.90;;;;;;5066321;28;20011;-80
2022/02/07 13:33:14;;;;;;;;;;;4.50;99.90;;;;;;5049505;28;19929;-81
2022/02/07 13:35:43;;;;;;;;;;;4.40;99.90;;;;;;5054515;28;19971;-81
2022/02/07 13:38:10;;;;;;;;;;;4.30;99.90;;;;;;5049597;28;19920;-81
2022/02/07 13:40:47;;;;;;;;;;;4.20;99.90;;;;;;5057159;28;19989;-80
2022/02/07 13:43:20;;;;;;;;;;;4.10;99.90;;;;;;5053032;28;19971;-81
2022/02/07 13:45:53;;;;;;;;;;;4.10;99.90;;;;;;5057557;28;19946;-81
2022/02/07 13:48:19;;;;;;;;;;;4.00;99.90;;;;;;5053795;28;19917;-81
2022/02/07 13:50:47;;;;;;;;;;;4.00;99.90;;;;;;5049295;28;19921;-80
2022/02/07 13:53:13;;;;;;;;;;;4.00;99.90;;;;;;5068361;28;19916;-81
2022/02/07 13:55:40;;;;;;;;;;;4.00;99.90;;;;;;5054716;28;19921;-81
2022/02/07 13:58:08;;;;;;;;;;;4.00;99.90;;;;;;5055238;28;19917;-80
2022/02/07 14:00:35;;;;;;;;;;;4.00;99.90;;;;;;5055847;28;19917;-80
2022/02/07 14:03:07;;;;;;;;;;;4.10;99.90;;;;;;5043068;28;19913;-80
2022/02/07 14:05:38;;;;;;;;;;;4.10;99.90;;;;;;5069270;28;19913;-80
2022/02/07 14:08:04;;;;;;;;;;;4.10;99.90;;;;;;5059517;28;19917;-79
2022/02/07 14:10:37;;;;;;;;;;;4.20;99.90;;;;;;5050574;28;19995;-80
2022/02/07 14:13:04;;;;;;;;;;;4.10;99.90;;;;;;5051460;28;19927;-81
2022/02/07 14:15:29;;;;;;;;;;;4.10;99.90;;;;;;5052994;28;20305;-81
2022/02/07 14:17:56;;;;;;;;;;;4.10;99.90;;;;;;5066770;28;20012;-80
2022/02/07 14:20:29;;;;;;;;;;;4.10;99.90;;;;;;5054575;28;20075;-81
2022/02/07 14:22:55;;;;;;;;;;;4.10;99.90;;;;;;5039791;28;19924;-80
2022/02/07 14:25:26;;;;;;;;;;;4.10;99.90;;;;;;5055263;28;20007;-78
2022/02/07 14:27:52;;;;;;;;;;;4.20;99.90;;;;;;5043601;28;19921;-78
2022/02/07 14:30:17;;;;;;;;;;;4.20;99.90;;;;;;5048172;28;20001;-80
2022/02/07 14:32:43;;;;;;;;;;;4.20;99.90;;;;;;5052489;28;20008;-81
2022/02/07 14:35:09;;;;;;;;;;;4.30;99.90;;;;;;5060215;28;20362;-81
2022/02/07 14:37:34;;;;;;;;;;;4.30;99.90;;;;;;5053286;28;19923;-80
2022/02/07 14:40:00;;;;;;;;;;;4.20;99.90;;;;;;5053660;28;19980;-81
2022/02/07 14:42:26;;;;;;;;;;;4.20;99.90;;;;;;5039473;28;20062;-80
2022/02/07 14:45:08;;;;;;;;;;;4.10;99.90;;;;;;5053400;28;19971;-80
2022/02/07 14:47:42;;;;;;;;;;;4.00;99.90;;;;;;5055103;28;19916;-80
2022/02/07 14:50:08;;;;;;;;;;;3.90;99.90;;;;;;5041946;28;19917;-81
2022/02/07 14:52:33;;;;;;;;;;;3.80;99.90;;;;;;5034506;28;19925;-80
2022/02/07 14:54:59;;;;;;;;;;;3.80;99.90;;;;;;5063263;28;20323;-80
2022/02/07 14:57:25;;;;;;;;;;;3.80;99.90;;;;;;5062303;28;20533;-81
2022/02/07 14:59:50;;;;;;;;;;;3.70;99.90;;;;;;5045857;28;19917;-80
2022/02/07 15:02:16;;;;;;;;;;;3.70;99.90;;;;;;5039639;28;20043;-81
2022/02/07 15:04:41;;;;;;;;;;;3.60;99.90;;;;;;5064962;28;19927;-80
2022/02/07 15:07:07;;;;;;;;;;;3.60;99.90;;;;;;5053006;28;20007;-80
2022/02/07 15:09:33;;;;;;;;;;;3.60;99.90;;;;;;5018758;28;19917;-79
2022/02/07 15:12:00;;;;;;;;;;;3.50;99.90;;;;;;5059354;28;19991;-80
2022/02/07 15:14:26;;;;;;;;;;;3.40;99.90;;;;;;5052612;28;19964;-81
2022/02/07 15:16:51;;;;;;;;;;;3.40;99.90;;;;;;5036096;28;19928;-80
2022/02/07 15:19:17;;;;;;;;;;;3.30;99.90;;;;;;5049590;28;19924;-80
2022/02/07 15:21:43;;;;;;;;;;;3.30;99.90;;;;;;5049641;28;19979;-81
2022/02/07 15:24:08;;;;;;;;;;;3.20;99.90;;;;;;5057425;28;19912;-82
2022/02/07 15:26:34;;;;;;;;;;;3.20;99.90;;;;;;5070792;28;19913;-78
2022/02/07 15:28:59;;;;;;;;;;;3.10;99.90;;;;;;5039596;28;19917;-78
2022/02/07 15:31:31;;;;;;;;;;;3.20;99.90;;;;;;5055276;28;19921;-80
2022/02/07 15:33:57;;;;;;;;;;;3.10;99.90;;;;;;5053303;28;19952;-81
2022/02/07 15:36:24;;;;;;;;;;;3.00;99.90;;;;;;5052645;28;19957;-81
2022/02/07 15:38:50;;;;;;;;;;;3.00;99.90;;;;;;5064182;28;19920;-80
2022/02/07 15:41:16;;;;;;;;;;;2.90;99.90;;;;;;5057330;28;19917;-79
2022/02/07 15:43:42;;;;;;;;;;;2.90;99.90;;;;;;5050169;28;19959;-80
2022/02/07 15:46:08;;;;;;;;;;;2.90;99.90;;;;;;5053659;28;20282;-80
2022/02/07 15:48:34;;;;;;;;;;;2.90;99.90;;;;;;5051431;28;19984;-81
2022/02/07 15:51:00;;;;;;;;;;;2.80;99.90;;;;;;5051469;28;20466;-78
2022/02/07 15:53:26;;;;;;;;;;;2.80;99.90;;;;;;5053067;28;19921;-78
2022/02/07 15:55:52;;;;;;;;;;;2.80;99.90;;;;;;5060124;28;20398;-81
2022/02/07 15:58:18;;;;;;;;;;;2.80;99.90;;;;;;5053772;28;19917;-80
2022/02/07 16:00:43;;;;;;;;;;;2.80;99.90;;;;;;5056408;28;19951;-79
2022/02/07 16:03:09;;;;;;;;;;;2.90;99.90;;;;;;5051514;28;19917;-81
2022/02/07 16:05:35;;;;;;;;;;;2.80;99.90;;;;;;5042632;28;19917;-81
2022/02/07 16:08:02;;;;;;;;;;;2.80;99.90;;;;;;5052679;28;19917;-80
2022/02/07 16:10:31;;;;;;;;;;;2.80;99.90;;;;;;5051263;28;19916;-80
2022/02/07 16:13:03;;;;;;;;;;;2.90;99.90;;;;;;5045393;28;19933;-80
2022/02/07 16:15:29;;;;;;;;;;;2.80;99.90;;;;;;5052709;28;20562;-80
2022/02/07 16:17:54;;;;;;;;;;;2.80;99.90;;;;;;5059063;28;19963;-81
2022/02/07 16:20:20;;;;;;;;;;;2.80;99.90;;;;;;5056353;28;19913;-80
2022/02/07 16:22:46;;;;;;;;;;;2.80;99.90;;;;;;5025878;28;19924;-80
2022/02/07 16:25:12;;;;;;;;;;;2.90;99.90;;;;;;5064681;28;19947;-80
2022/02/07 16:27:38;;;;;;;;;;;2.90;99.90;;;;;;5058356;28;19921;-80
2022/02/07 16:30:04;;;;;;;;;;;2.80;99.90;;;;;;5039374;28;19923;-80
2022/02/07 16:32:30;;;;;;;;;;;2.80;99.90;;;;;;5047391;28;19924;-80
2022/02/07 16:34:55;;;;;;;;;;;2.80;99.90;;;;;;5059189;28;19916;-80
2022/02/07 16:37:21;;;;;;;;;;;2.80;99.90;;;;;;5072241;28;19920;-80
2022/02/07 16:39:47;;;;;;;;;;;2.70;99.90;;;;;;5059176;28;19987;-80
2022/02/07 16:42:12;;;;;;;;;;;2.70;99.90;;;;;;5045037;28;19957;-80
2022/02/07 16:44:38;;;;;;;;;;;2.70;99.90;;;;;;5057907;28;19917;-80
2022/02/07 16:47:07;;;;;;;;;;;2.70;99.90;;;;;;5081291;28;19928;-79
2022/02/07 16:49:34;;;;;;;;;;;2.70;99.90;;;;;;5057527;28;19913;-81
2022/02/07 16:52:00;;;;;;;;;;;2.70;99.90;;;;;;5058249;28;19921;-81
2022/02/07 16:54:27;;;;;;;;;;;2.70;99.90;;;;;;5059960;28;19909;-81
2022/02/07 16:56:54;;;;;;;;;;;2.70;99.90;;;;;;5064190;28;20325;-80
2022/02/07 16:59:20;;;;;;;;;;;2.70;99.90;;;;;;5058698;28;20017;-81
2022/02/07 17:01:50;;;;;;;;;;;2.60;99.90;;;;;;5069914;28;19953;-80
2022/02/07 17:04:16;;;;;;;;;;;2.60;99.90;;;;;;5057331;28;20349;-81